Hauptseite
METAR-TAF:

METAR-TAF

Flughäfen :

Flughafen Châteauroux-Centre

Châteauroux, Frankreich

Breite: 46-51N, Länge: 001-43E, Höhe: 160 m

Beobachtung

Neuester Wetterbericht von vor 30 Minuten, um 13:00 UTC
Wind 8 kt aus Ost/Südost, variierte zwischen Ost und Süd/Südost
Temperatur 34°C
Luftfeuchtigkeit 19%
Luftdruck 1016 hPa
Sichtweite 10 km oder mehr
keine Wolken unter 1500 m und keine Kumulonimbus oder Gewitterwolken

METAR: LFLX 061300Z AUTO 12008KT 080V150 CAVOK 34/07 Q1016 NOSIG

Zeit: 15:30 (13:30 UTC)

Prognose

Neuester Wetterbericht von vor 2 Stunden und 30 Minuten, um 11:00 UTC
Gültige Prognose vom 06 um 12 UTC bis 07 um 18 UTC
Wind 5 kt aus Ost
Sichtweite 10 km oder mehr
keine Wolken unter 1500 m und keine Kumulonimbus oder Gewitterwolken

TAF: LFLX 061100Z 0612/0718 09005KT CAVOK

Wetterbeobachtungen und Prognosen von mehr als 4000 Flughäfen (METAR und TAF Bericht).

Die verfügbaren Stationen werden durch gelbe und rote Markierungen auf der Karte dargestellt.

Führen Sie die Maus auf sie, um den Namen der Station zu sehen.

Darauf klicken, um die Beobachtung von Wetterbeobachtungen und Prognosen zu sehen.

Um die Karte zu ändern : klicken Sie auf den grünen Tasten mit einem schwarzen Kreuz Zum Vergrößern, auf den grünen Button mit einem Gedankenstrich zu verkleinern, oder auf die grünen Pfeile für benachbarte Karten.


METAR-TAF: